NCAR-RAP Real-Time Weather Data

Output produced by METARs form (26 May 2022  07:03 UTC)
found at http://weather.rap.ucar.edu/surface/
 
KSYR 260654Z 16008KT 10SM SCT120 OVC150 18/09 A3016 RMK AO2 SLP206 T01780089
KSYR 260554Z 16008KT 10SM BKN130 OVC150 19/09 A3018 RMK AO2 SLP213 T01890089 10222 20189 56007
KSYR 260454Z 16010KT 10SM FEW140 OVC160 19/09 A3018 RMK AO2 SLP214 T01940094 402330100
KSYR 260354Z 17008KT 10SM OVC160 20/09 A3019 RMK AO2 SLP217 T02000089
KSYR 260254Z 14006KT 10SM OVC150 19/11 A3020 RMK AO2 SLP221 T01940111 56000
KSYR 260154Z 11007KT 10SM BKN150 OVC200 19/11 A3020 RMK AO2 SLP221 T01940111
KSYR 260054Z 11006KT 10SM BKN150 OVC210 19/11 A3019 RMK AO2 SLP220 T01940111
KSYR 252354Z 16004KT 10SM FEW060 BKN150 OVC200 22/10 A3020 RMK AO2 SLP222 T02220100 10233 20217 56009
KSYR 252254Z 12009KT 10SM BKN065 BKN150 OVC180 23/11 A3020 RMK AO2 SLP223 T02280106
KSYR 252154Z 12007KT 10SM SCT050 SCT150 OVC220 23/11 A3021 RMK AO2 SLP225 T02330111
KSYR 252054Z 12008KT 10SM SCT050 BKN070 BKN180 22/11 A3023 RMK AO2 SLP232 T02220106 58024
KSYR 251954Z 10008KT 10SM FEW050 BKN060 BKN180 23/12 A3025 RMK AO2 SLP240 T02280117
KSYR 251854Z 12005KT 10SM SCT040 BKN065 BKN180 BKN260 23/12 A3028 RMK AO2 SLP249 T02280122
KSYR 251754Z 16004KT 10SM SCT040 BKN065 BKN180 OVC260 22/12 A3030 RMK AO2 SLP256 T02170117 10222 20144 58014
KSYR 251654Z 08005KT 10SM SCT040 BKN065 BKN180 BKN260 22/11 A3031 RMK AO2 SLP259 T02170111
KSYR 251554Z 25003KT 10SM SCT039 BKN065 BKN180 BKN260 21/11 A3033 RMK AO2 CIG 040 NW SLP266 T02060111
KSYR 251454Z 00000KT 10SM SCT035 SCT050 BKN180 BKN260 20/12 A3034 RMK AO2 SLP269 T02000117 58003
KSYR 251354Z 00000KT 10SM FEW050 FEW180 BKN260 19/12 A3034 RMK AO2 SLP270 T01940117
KSYR 251254Z 00000KT 10SM FEW180 SCT260 17/12 A3035 RMK AO2 SLP275 T01720122
KSYR 251154Z 09004KT 10SM FEW180 SCT260 14/11 A3035 RMK AO2 SLP273 7//// T01440111 10144 20100 51018
KSYR 251054Z 07004KT 10SM FEW180 SCT260 12/11 A3033 RMK AO2 SLP268 T01220106
KSYR 250954Z 00000KT 10SM FEW070 FEW180 SCT260 11/09 A3031 RMK AO2 SLP261 T01110094
KSYR 250854Z 12003KT 10SM FEW250 12/09 A3029 RMK AO2 SLP254 T01170094 58001
KSYR 250754Z 00000KT 10SM FEW050 SCT260 12/09 A3030 RMK AO2 SLP256 T01170094
KSYR 250654Z 09003KT 10SM FEW045 FEW250 12/09 A3030 RMK AO2 SLP256 T01170089
KSYR 250554Z 00000KT 10SM FEW049 SCT250 13/08 A3029 RMK AO2 SLP255 T01280083 10183 20122 51005
KSYR 250454Z 00000KT 10SM BKN048 13/08 A3029 RMK AO2 SLP253 T01330078 402220061
KSYR 250354Z 00000KT 10SM BKN049 BKN250 15/08 A3029 RMK AO2 SLP253 T01500078
KSYR 250254Z 27005KT 10SM BKN055 BKN250 15/08 A3028 RMK AO2 SLP250 T01500078 51013
KSYR 250154Z 25006KT 10SM BKN055 BKN080 BKN250 16/08 A3027 RMK AO2 SLP248 T01610078
KSYR 250054Z 31004KT 10SM BKN060 BKN250 17/08 A3026 RMK AO2 SLP242 T01720078
KSYR 242354Z 33009KT 10SM BKN060 BKN250 18/08 A3024 RMK AO2 SLP237 T01830078 10222 20183 53007
KSYR 242254Z 35011KT 10SM FEW060 SCT250 20/08 A3021 RMK AO2 SLP227 T02000083
KSYR 242154Z 04006KT 10SM FEW060 SCT250 21/08 A3021 RMK AO2 SLP225 T02110078
KSYR 242054Z 34004KT 10SM SCT060 SCT250 22/08 A3022 RMK AO2 SLP229 T02220083 58010
KSYR 241954Z 36006KT 10SM SCT060 SCT250 22/08 A3023 RMK AO2 SLP233 T02170083
KSYR 241854Z 02007KT 10SM SCT060 SCT250 21/07 A3024 RMK AO2 SLP237 T02060072
KSYR 241754Z 03005KT 10SM SCT060 SCT250 21/08 A3025 RMK AO2 SLP239 6//// T02060078 10211 20106 56011
KSYR 241654Z VRB04KT 10SM FEW055 FEW070 SCT250 20/07 A3025 RMK AO2 SLP241 T02000067
KSYR 241554Z 13007KT 090V150 10SM FEW060 SCT250 19/08 A3027 RMK AO2 SLP248 T01940078 $
KSYR 241454Z VRB03KT 10SM FEW060 FEW200 17/07 A3028 RMK AO2 SLP251 6//// T01720067
KSYR 241354Z 08005KT 10SM FEW060 FEW160 SCT250 15/06 A3030 RMK AO2 SLP260 T01500061
KSYR 241254Z 09009KT 10SM BKN055 BKN065 13/06 A3031 RMK AO2 SLP261 T01330061 $
KSYR 241154Z 09007KT 10SM SCT065 SCT250 11/08 A3031 RMK AO2 SLP263 T01110078 10111 20061 51011 $
KSYR 241054Z 00000KT 10SM FEW065 FEW180 SCT250 08/07 A3030 RMK AO2 SLP260 T00830067 $
KSYR 240954Z 00000KT 10SM FEW060 FEW180 SCT250 07/06 A3029 RMK AO2 SLP255 T00670056 $
KSYR 240854Z 10003KT 10SM FEW060 FEW180 SCT250 07/05 A3028 RMK AO2 SLP251 T00670050 58003 $
KSYR 240754Z 00000KT 10SM SCT260 07/06 A3029 RMK AO2 SLP253 T00720061 $